sensor_id;sensor_type;location;lat;lon;timestamp;P1;durP1;ratioP1;P2;durP2;ratioP2
12832;SDS011;6483;51.310;4.462;2023-01-16T00:02:00;6.67;;;1.60;;
12832;SDS011;6483;51.310;4.462;2023-01-16T00:04:30;3.83;;;1.83;;
12832;SDS011;6483;51.310;4.462;2023-01-16T00:06:56;3.33;;;1.90;;
12832;SDS011;6483;51.310;4.462;2023-01-16T00:09:24;6.77;;;1.80;;
12832;SDS011;6483;51.310;4.462;2023-01-16T00:11:50;5.33;;;2.00;;
12832;SDS011;6483;51.310;4.462;2023-01-16T00:14:16;5.10;;;1.60;;
12832;SDS011;6483;51.310;4.462;2023-01-16T00:16:41;5.93;;;1.60;;
12832;SDS011;6483;51.310;4.462;2023-01-16T00:19:07;5.80;;;2.00;;
12832;SDS011;6483;51.310;4.462;2023-01-16T00:21:33;6.13;;;1.63;;
12832;SDS011;6483;51.310;4.462;2023-01-16T00:23:59;4.67;;;1.23;;
12832;SDS011;6483;51.310;4.462;2023-01-16T00:26:25;8.60;;;1.63;;
12832;SDS011;6483;51.310;4.462;2023-01-16T00:28:52;4.80;;;1.27;;
12832;SDS011;6483;51.310;4.462;2023-01-16T00:31:18;6.47;;;1.70;;
12832;SDS011;6483;51.310;4.462;2023-01-16T00:33:45;6.93;;;1.67;;
12832;SDS011;6483;51.310;4.462;2023-01-16T00:36:14;4.37;;;1.37;;
12832;SDS011;6483;51.310;4.462;2023-01-16T00:38:41;5.70;;;1.40;;
12832;SDS011;6483;51.310;4.462;2023-01-16T00:41:07;3.93;;;1.20;;
12832;SDS011;6483;51.310;4.462;2023-01-16T00:43:33;4.43;;;1.70;;
12832;SDS011;6483;51.310;4.462;2023-01-16T00:45:59;3.97;;;1.80;;
12832;SDS011;6483;51.310;4.462;2023-01-16T00:48:25;2.03;;;1.27;;
12832;SDS011;6483;51.310;4.462;2023-01-16T00:50:57;6.93;;;1.67;;
12832;SDS011;6483;51.310;4.462;2023-01-16T00:53:23;5.57;;;1.40;;
12832;SDS011;6483;51.310;4.462;2023-01-16T00:55:50;3.97;;;1.40;;
12832;SDS011;6483;51.310;4.462;2023-01-16T00:58:16;3.73;;;1.40;;
12832;SDS011;6483;51.310;4.462;2023-01-16T01:01:05;7.03;;;1.40;;
12832;SDS011;6483;51.310;4.462;2023-01-16T01:03:31;5.43;;;1.20;;
12832;SDS011;6483;51.310;4.462;2023-01-16T01:05:57;4.30;;;1.10;;
12832;SDS011;6483;51.310;4.462;2023-01-16T01:08:23;7.20;;;1.13;;
12832;SDS011;6483;51.310;4.462;2023-01-16T01:10:49;6.27;;;1.50;;
12832;SDS011;6483;51.310;4.462;2023-01-16T01:13:16;6.90;;;1.30;;
12832;SDS011;6483;51.310;4.462;2023-01-16T01:15:42;5.60;;;1.57;;
12832;SDS011;6483;51.310;4.462;2023-01-16T01:18:11;7.00;;;1.10;;
12832;SDS011;6483;51.310;4.462;2023-01-16T01:20:36;3.30;;;1.33;;
12832;SDS011;6483;51.310;4.462;2023-01-16T01:23:05;7.50;;;1.53;;
12832;SDS011;6483;51.310;4.462;2023-01-16T01:25:33;3.60;;;1.10;;
12832;SDS011;6483;51.310;4.462;2023-01-16T01:28:02;6.10;;;1.27;;
12832;SDS011;6483;51.310;4.462;2023-01-16T01:30:28;3.50;;;1.17;;
12832;SDS011;6483;51.310;4.462;2023-01-16T01:32:54;7.40;;;1.63;;
12832;SDS011;6483;51.310;4.462;2023-01-16T01:35:20;5.43;;;1.00;;
12832;SDS011;6483;51.310;4.462;2023-01-16T01:37:48;7.33;;;1.60;;
12832;SDS011;6483;51.310;4.462;2023-01-16T01:40:14;2.27;;;0.97;;
12832;SDS011;6483;51.310;4.462;2023-01-16T01:42:40;5.37;;;1.10;;
12832;SDS011;6483;51.310;4.462;2023-01-16T01:48:02;5.73;;;0.93;;
12832;SDS011;6483;51.310;4.462;2023-01-16T01:53:35;7.30;;;1.00;;
12832;SDS011;6483;51.310;4.462;2023-01-16T01:56:39;3.27;;;1.00;;
12832;SDS011;6483;51.310;4.462;2023-01-16T01:59:27;6.80;;;0.97;;
12832;SDS011;6483;51.310;4.462;2023-01-16T02:02:15;5.83;;;1.90;;
12832;SDS011;6483;51.310;4.462;2023-01-16T02:04:44;4.77;;;1.07;;
12832;SDS011;6483;51.310;4.462;2023-01-16T02:07:14;3.87;;;1.17;;
12832;SDS011;6483;51.310;4.462;2023-01-16T02:09:42;6.30;;;1.27;;
12832;SDS011;6483;51.310;4.462;2023-01-16T02:12:09;5.17;;;1.30;;
12832;SDS011;6483;51.310;4.462;2023-01-16T02:14:39;6.03;;;1.43;;
12832;SDS011;6483;51.310;4.462;2023-01-16T02:17:08;3.50;;;1.20;;
12832;SDS011;6483;51.310;4.462;2023-01-16T02:20:06;5.97;;;1.10;;
12832;SDS011;6483;51.310;4.462;2023-01-16T02:23:33;2.97;;;1.10;;
12832;SDS011;6483;51.310;4.462;2023-01-16T02:42:29;4.47;;;1.30;;
12832;SDS011;6483;51.310;4.462;2023-01-16T02:45:04;4.60;;;1.50;;
12832;SDS011;6483;51.310;4.462;2023-01-16T02:48:04;5.83;;;1.87;;
12832;SDS011;6483;51.310;4.462;2023-01-16T02:53:36;4.03;;;1.20;;
12832;SDS011;6483;51.310;4.462;2023-01-16T02:56:22;6.83;;;1.50;;
12832;SDS011;6483;51.310;4.462;2023-01-16T02:58:56;5.87;;;1.53;;
12832;SDS011;6483;51.310;4.462;2023-01-16T03:01:23;3.03;;;1.37;;
12832;SDS011;6483;51.310;4.462;2023-01-16T03:25:29;5.77;;;1.73;;
12832;SDS011;6483;51.310;4.462;2023-01-16T03:31:18;9.10;;;1.70;;
12832;SDS011;6483;51.310;4.462;2023-01-16T03:36:46;4.57;;;1.60;;
12832;SDS011;6483;51.310;4.462;2023-01-16T03:39:14;8.80;;;1.57;;
12832;SDS011;6483;51.310;4.462;2023-01-16T03:41:43;8.00;;;1.57;;
12832;SDS011;6483;51.310;4.462;2023-01-16T03:44:17;7.33;;;1.93;;
12832;SDS011;6483;51.310;4.462;2023-01-16T03:46:50;4.83;;;1.37;;
12832;SDS011;6483;51.310;4.462;2023-01-16T03:49:21;4.07;;;1.37;;
12832;SDS011;6483;51.310;4.462;2023-01-16T03:51:55;5.87;;;1.50;;
12832;SDS011;6483;51.310;4.462;2023-01-16T03:54:28;7.03;;;2.27;;
12832;SDS011;6483;51.310;4.462;2023-01-16T04:00:12;3.17;;;1.40;;
12832;SDS011;6483;51.310;4.462;2023-01-16T04:05:49;7.03;;;2.27;;
12832;SDS011;6483;51.310;4.462;2023-01-16T04:08:37;6.13;;;1.40;;
12832;SDS011;6483;51.310;4.462;2023-01-16T04:11:05;7.07;;;1.43;;
12832;SDS011;6483;51.310;4.462;2023-01-16T04:13:37;3.97;;;1.37;;
12832;SDS011;6483;51.310;4.462;2023-01-16T04:16:07;8.07;;;1.80;;
12832;SDS011;6483;51.310;4.462;2023-01-16T04:18:42;6.27;;;2.03;;
12832;SDS011;6483;51.310;4.462;2023-01-16T04:21:08;6.57;;;1.80;;
12832;SDS011;6483;51.310;4.462;2023-01-16T04:23:34;7.77;;;1.77;;
12832;SDS011;6483;51.310;4.462;2023-01-16T04:26:03;6.00;;;1.47;;
12832;SDS011;6483;51.310;4.462;2023-01-16T04:28:35;5.40;;;1.33;;
12832;SDS011;6483;51.310;4.462;2023-01-16T04:31:01;2.43;;;1.07;;
12832;SDS011;6483;51.310;4.462;2023-01-16T04:33:29;7.00;;;1.50;;
12832;SDS011;6483;51.310;4.462;2023-01-16T04:35:55;7.93;;;1.50;;
12832;SDS011;6483;51.310;4.462;2023-01-16T04:38:21;6.20;;;1.73;;
12832;SDS011;6483;51.310;4.462;2023-01-16T04:40:46;10.47;;;1.80;;
12832;SDS011;6483;51.310;4.462;2023-01-16T04:43:30;9.03;;;1.77;;
12832;SDS011;6483;51.310;4.462;2023-01-16T04:45:56;6.30;;;1.40;;
12832;SDS011;6483;51.310;4.462;2023-01-16T04:48:22;6.23;;;1.20;;
12832;SDS011;6483;51.310;4.462;2023-01-16T04:50:48;4.77;;;2.17;;
12832;SDS011;6483;51.310;4.462;2023-01-16T04:53:17;4.73;;;1.30;;
12832;SDS011;6483;51.310;4.462;2023-01-16T04:55:43;5.23;;;1.50;;
12832;SDS011;6483;51.310;4.462;2023-01-16T04:58:09;5.47;;;1.63;;
12832;SDS011;6483;51.310;4.462;2023-01-16T05:00:34;5.97;;;1.47;;
12832;SDS011;6483;51.310;4.462;2023-01-16T05:03:02;4.63;;;1.43;;
12832;SDS011;6483;51.310;4.462;2023-01-16T05:05:28;10.63;;;1.93;;
12832;SDS011;6483;51.310;4.462;2023-01-16T05:07:56;4.57;;;1.50;;
12832;SDS011;6483;51.310;4.462;2023-01-16T05:10:46;5.60;;;1.60;;
12832;SDS011;6483;51.310;4.462;2023-01-16T05:13:16;8.20;;;1.80;;
12832;SDS011;6483;51.310;4.462;2023-01-16T05:15:43;9.80;;;1.60;;
12832;SDS011;6483;51.310;4.462;2023-01-16T05:18:13;5.03;;;1.53;;
12832;SDS011;6483;51.310;4.462;2023-01-16T05:20:39;9.43;;;1.83;;
12832;SDS011;6483;51.310;4.462;2023-01-16T05:23:05;7.97;;;1.57;;
12832;SDS011;6483;51.310;4.462;2023-01-16T05:25:31;5.03;;;1.47;;
12832;SDS011;6483;51.310;4.462;2023-01-16T05:27:56;7.07;;;1.40;;
12832;SDS011;6483;51.310;4.462;2023-01-16T05:30:22;9.37;;;1.70;;
12832;SDS011;6483;51.310;4.462;2023-01-16T05:32:48;9.00;;;1.70;;
12832;SDS011;6483;51.310;4.462;2023-01-16T05:35:14;9.47;;;1.97;;
12832;SDS011;6483;51.310;4.462;2023-01-16T05:37:41;7.43;;;1.50;;
12832;SDS011;6483;51.310;4.462;2023-01-16T05:40:08;8.10;;;1.63;;
12832;SDS011;6483;51.310;4.462;2023-01-16T05:42:36;6.53;;;1.77;;
12832;SDS011;6483;51.310;4.462;2023-01-16T05:45:02;5.73;;;1.30;;
12832;SDS011;6483;51.310;4.462;2023-01-16T05:47:28;6.47;;;1.50;;
12832;SDS011;6483;51.310;4.462;2023-01-16T05:49:56;9.33;;;2.00;;
12832;SDS011;6483;51.310;4.462;2023-01-16T05:52:23;6.40;;;1.63;;
12832;SDS011;6483;51.310;4.462;2023-01-16T05:54:51;10.00;;;1.87;;
12832;SDS011;6483;51.310;4.462;2023-01-16T05:57:18;7.20;;;1.70;;
12832;SDS011;6483;51.310;4.462;2023-01-16T05:59:46;8.90;;;1.60;;
12832;SDS011;6483;51.310;4.462;2023-01-16T06:02:18;5.83;;;1.40;;
12832;SDS011;6483;51.310;4.462;2023-01-16T06:04:45;7.77;;;1.40;;
12832;SDS011;6483;51.310;4.462;2023-01-16T06:07:11;11.63;;;2.00;;
12832;SDS011;6483;51.310;4.462;2023-01-16T06:09:38;9.03;;;1.40;;
12832;SDS011;6483;51.310;4.462;2023-01-16T06:12:05;7.73;;;1.90;;
12832;SDS011;6483;51.310;4.462;2023-01-16T06:14:32;13.13;;;1.77;;
12832;SDS011;6483;51.310;4.462;2023-01-16T06:16:59;8.43;;;1.70;;
12832;SDS011;6483;51.310;4.462;2023-01-16T06:19:24;4.23;;;1.50;;
12832;SDS011;6483;51.310;4.462;2023-01-16T06:21:50;8.37;;;1.60;;
12832;SDS011;6483;51.310;4.462;2023-01-16T06:24:16;9.77;;;1.87;;
12832;SDS011;6483;51.310;4.462;2023-01-16T06:26:44;7.03;;;1.43;;
12832;SDS011;6483;51.310;4.462;2023-01-16T06:29:10;7.20;;;1.60;;
12832;SDS011;6483;51.310;4.462;2023-01-16T06:31:39;6.53;;;1.27;;
12832;SDS011;6483;51.310;4.462;2023-01-16T06:34:04;3.83;;;1.33;;
12832;SDS011;6483;51.310;4.462;2023-01-16T06:36:33;4.40;;;1.27;;
12832;SDS011;6483;51.310;4.462;2023-01-16T06:39:17;5.17;;;1.10;;
12832;SDS011;6483;51.310;4.462;2023-01-16T06:41:43;8.10;;;1.20;;
12832;SDS011;6483;51.310;4.462;2023-01-16T06:44:08;4.00;;;1.73;;
12832;SDS011;6483;51.310;4.462;2023-01-16T06:46:37;5.37;;;1.40;;
12832;SDS011;6483;51.310;4.462;2023-01-16T06:49:09;3.93;;;1.50;;
12832;SDS011;6483;51.310;4.462;2023-01-16T06:51:36;6.63;;;1.67;;
12832;SDS011;6483;51.310;4.462;2023-01-16T06:54:04;4.13;;;1.23;;
12832;SDS011;6483;51.310;4.462;2023-01-16T06:56:31;7.67;;;1.60;;
12832;SDS011;6483;51.310;4.462;2023-01-16T06:58:56;4.97;;;1.23;;
12832;SDS011;6483;51.310;4.462;2023-01-16T07:01:23;6.60;;;1.47;;
12832;SDS011;6483;51.310;4.462;2023-01-16T07:03:52;6.57;;;1.20;;
12832;SDS011;6483;51.310;4.462;2023-01-16T07:06:20;9.03;;;1.57;;
12832;SDS011;6483;51.310;4.462;2023-01-16T07:08:48;5.77;;;1.20;;
12832;SDS011;6483;51.310;4.462;2023-01-16T07:11:15;8.60;;;1.57;;
12832;SDS011;6483;51.310;4.462;2023-01-16T07:13:42;5.50;;;1.10;;
12832;SDS011;6483;51.310;4.462;2023-01-16T07:16:14;3.77;;;0.73;;
12832;SDS011;6483;51.310;4.462;2023-01-16T07:18:59;4.07;;;2.00;;
12832;SDS011;6483;51.310;4.462;2023-01-16T07:21:44;3.20;;;1.30;;
12832;SDS011;6483;51.310;4.462;2023-01-16T07:24:31;5.40;;;1.53;;
12832;SDS011;6483;51.310;4.462;2023-01-16T07:27:02;6.50;;;1.00;;
12832;SDS011;6483;51.310;4.462;2023-01-16T07:29:30;4.37;;;1.27;;
12832;SDS011;6483;51.310;4.462;2023-01-16T07:31:59;2.53;;;0.90;;
12832;SDS011;6483;51.310;4.462;2023-01-16T07:34:26;4.33;;;1.13;;
12832;SDS011;6483;51.310;4.462;2023-01-16T07:36:52;6.87;;;1.60;;
12832;SDS011;6483;51.310;4.462;2023-01-16T07:39:17;6.00;;;1.03;;
12832;SDS011;6483;51.310;4.462;2023-01-16T07:41:43;3.20;;;1.10;;
12832;SDS011;6483;51.310;4.462;2023-01-16T07:44:10;6.00;;;1.03;;
12832;SDS011;6483;51.310;4.462;2023-01-16T07:46:38;3.27;;;1.17;;
12832;SDS011;6483;51.310;4.462;2023-01-16T07:49:04;3.20;;;0.93;;
12832;SDS011;6483;51.310;4.462;2023-01-16T07:51:30;5.70;;;1.23;;
12832;SDS011;6483;51.310;4.462;2023-01-16T07:53:56;5.77;;;1.10;;
12832;SDS011;6483;51.310;4.462;2023-01-16T07:56:21;3.80;;;0.90;;
12832;SDS011;6483;51.310;4.462;2023-01-16T07:58:49;2.20;;;0.80;;
12832;SDS011;6483;51.310;4.462;2023-01-16T08:01:19;0.60;;;0.50;;
12832;SDS011;6483;51.310;4.462;2023-01-16T08:03:44;1.97;;;0.63;;
12832;SDS011;6483;51.310;4.462;2023-01-16T08:06:10;1.17;;;0.70;;
12832;SDS011;6483;51.310;4.462;2023-01-16T08:08:36;0.83;;;0.57;;
12832;SDS011;6483;51.310;4.462;2023-01-16T08:11:01;1.23;;;0.40;;
12832;SDS011;6483;51.310;4.462;2023-01-16T08:13:47;3.43;;;1.00;;
12832;SDS011;6483;51.310;4.462;2023-01-16T08:16:13;0.80;;;0.67;;
12832;SDS011;6483;51.310;4.462;2023-01-16T08:18:38;2.07;;;0.70;;
12832;SDS011;6483;51.310;4.462;2023-01-16T08:21:04;0.67;;;0.30;;
12832;SDS011;6483;51.310;4.462;2023-01-16T08:23:30;2.00;;;0.70;;
12832;SDS011;6483;51.310;4.462;2023-01-16T08:25:56;1.60;;;0.60;;
12832;SDS011;6483;51.310;4.462;2023-01-16T08:28:25;1.83;;;0.63;;
12832;SDS011;6483;51.310;4.462;2023-01-16T08:30:51;1.67;;;0.60;;
12832;SDS011;6483;51.310;4.462;2023-01-16T08:33:17;0.57;;;0.30;;
12832;SDS011;6483;51.310;4.462;2023-01-16T08:35:42;1.97;;;0.50;;
12832;SDS011;6483;51.310;4.462;2023-01-16T08:38:08;2.93;;;0.50;;
12832;SDS011;6483;51.310;4.462;2023-01-16T08:40:35;0.50;;;0.50;;
12832;SDS011;6483;51.310;4.462;2023-01-16T08:43:01;0.37;;;0.37;;
12832;SDS011;6483;51.310;4.462;2023-01-16T08:45:45;1.33;;;0.47;;
12832;SDS011;6483;51.310;4.462;2023-01-16T08:48:29;0.90;;;0.80;;
12832;SDS011;6483;51.310;4.462;2023-01-16T08:51:16;1.97;;;0.60;;
12832;SDS011;6483;51.310;4.462;2023-01-16T08:53:53;0.40;;;0.40;;
12832;SDS011;6483;51.310;4.462;2023-01-16T08:56:21;0.63;;;0.63;;
12832;SDS011;6483;51.310;4.462;2023-01-16T08:58:46;0.67;;;0.20;;
12832;SDS011;6483;51.310;4.462;2023-01-16T09:01:12;1.73;;;0.67;;
12832;SDS011;6483;51.310;4.462;2023-01-16T09:03:38;0.63;;;0.60;;
12832;SDS011;6483;51.310;4.462;2023-01-16T09:06:04;0.77;;;0.40;;
12832;SDS011;6483;51.310;4.462;2023-01-16T09:08:30;1.40;;;0.60;;
12832;SDS011;6483;51.310;4.462;2023-01-16T09:10:55;1.80;;;0.40;;
12832;SDS011;6483;51.310;4.462;2023-01-16T09:13:39;0.27;;;0.27;;
12832;SDS011;6483;51.310;4.462;2023-01-16T09:16:14;0.70;;;0.40;;
12832;SDS011;6483;51.310;4.462;2023-01-16T09:18:48;0.93;;;0.40;;
12832;SDS011;6483;51.310;4.462;2023-01-16T09:21:14;0.30;;;0.30;;
12832;SDS011;6483;51.310;4.462;2023-01-16T09:23:40;1.97;;;0.70;;
12832;SDS011;6483;51.310;4.462;2023-01-16T09:26:06;0.33;;;0.33;;
12832;SDS011;6483;51.310;4.462;2023-01-16T09:28:32;0.20;;;0.20;;
12832;SDS011;6483;51.310;4.462;2023-01-16T09:30:58;0.30;;;0.30;;
12832;SDS011;6483;51.310;4.462;2023-01-16T09:33:23;0.60;;;0.20;;
12832;SDS011;6483;51.310;4.462;2023-01-16T09:35:49;2.03;;;0.57;;
12832;SDS011;6483;51.310;4.462;2023-01-16T09:38:15;1.03;;;0.73;;
12832;SDS011;6483;51.310;4.462;2023-01-16T09:40:45;0.60;;;0.40;;
12832;SDS011;6483;51.310;4.462;2023-01-16T09:46:19;1.80;;;0.53;;
12832;SDS011;6483;51.310;4.462;2023-01-16T09:48:56;1.17;;;0.47;;
12832;SDS011;6483;51.310;4.462;2023-01-16T09:51:30;0.60;;;0.47;;
12832;SDS011;6483;51.310;4.462;2023-01-16T09:54:03;0.53;;;0.40;;
12832;SDS011;6483;51.310;4.462;2023-01-16T09:57:01;0.53;;;0.50;;
12832;SDS011;6483;51.310;4.462;2023-01-16T09:59:53;2.37;;;0.50;;
12832;SDS011;6483;51.310;4.462;2023-01-16T10:02:20;1.27;;;0.40;;
12832;SDS011;6483;51.310;4.462;2023-01-16T10:04:52;0.70;;;0.60;;
12832;SDS011;6483;51.310;4.462;2023-01-16T10:18:57;0.30;;;0.30;;
12832;SDS011;6483;51.310;4.462;2023-01-16T10:21:41;0.90;;;0.60;;
12832;SDS011;6483;51.310;4.462;2023-01-16T10:27:16;0.60;;;0.60;;
12832;SDS011;6483;51.310;4.462;2023-01-16T10:29:57;0.87;;;0.40;;
12832;SDS011;6483;51.310;4.462;2023-01-16T10:32:29;0.80;;;0.40;;
12832;SDS011;6483;51.310;4.462;2023-01-16T10:37:32;1.57;;;0.60;;
12832;SDS011;6483;51.310;4.462;2023-01-16T10:39:59;0.90;;;0.60;;
12832;SDS011;6483;51.310;4.462;2023-01-16T10:42:36;1.37;;;0.90;;
12832;SDS011;6483;51.310;4.462;2023-01-16T10:45:27;0.70;;;0.50;;
12832;SDS011;6483;51.310;4.462;2023-01-16T10:48:14;1.20;;;0.80;;
12832;SDS011;6483;51.310;4.462;2023-01-16T10:51:00;0.90;;;0.60;;
12832;SDS011;6483;51.310;4.462;2023-01-16T10:53:27;1.13;;;0.90;;
12832;SDS011;6483;51.310;4.462;2023-01-16T10:55:53;1.80;;;0.63;;
12832;SDS011;6483;51.310;4.462;2023-01-16T10:58:25;1.63;;;1.10;;
12832;SDS011;6483;51.310;4.462;2023-01-16T11:01:03;1.00;;;1.00;;
12832;SDS011;6483;51.310;4.462;2023-01-16T11:03:35;1.97;;;1.23;;
12832;SDS011;6483;51.310;4.462;2023-01-16T11:06:06;3.43;;;0.97;;
12832;SDS011;6483;51.310;4.462;2023-01-16T11:08:32;1.07;;;0.70;;
12832;SDS011;6483;51.310;4.462;2023-01-16T11:10:59;0.90;;;0.90;;
12832;SDS011;6483;51.310;4.462;2023-01-16T11:13:25;1.97;;;1.03;;
12832;SDS011;6483;51.310;4.462;2023-01-16T11:18:56;1.30;;;0.90;;
12832;SDS011;6483;51.310;4.462;2023-01-16T11:21:44;1.03;;;0.80;;
12832;SDS011;6483;51.310;4.462;2023-01-16T11:24:15;1.80;;;1.00;;
12832;SDS011;6483;51.310;4.462;2023-01-16T11:26:45;1.17;;;1.07;;
12832;SDS011;6483;51.310;4.462;2023-01-16T11:29:17;2.90;;;0.90;;
12832;SDS011;6483;51.310;4.462;2023-01-16T11:32:18;1.33;;;1.23;;
12832;SDS011;6483;51.310;4.462;2023-01-16T11:34:39;2.00;;;0.80;;
12832;SDS011;6483;51.310;4.462;2023-01-16T11:37:10;2.00;;;1.30;;
12832;SDS011;6483;51.310;4.462;2023-01-16T11:39:40;2.43;;;1.47;;
12832;SDS011;6483;51.310;4.462;2023-01-16T11:42:08;2.10;;;1.30;;
12832;SDS011;6483;51.310;4.462;2023-01-16T11:44:57;6.27;;;2.50;;
12832;SDS011;6483;51.310;4.462;2023-01-16T11:47:43;11.90;;;5.03;;
12832;SDS011;6483;51.310;4.462;2023-01-16T11:50:35;6.77;;;3.37;;
12832;SDS011;6483;51.310;4.462;2023-01-16T11:53:04;9.40;;;3.20;;
12832;SDS011;6483;51.310;4.462;2023-01-16T11:55:33;6.20;;;1.63;;
12832;SDS011;6483;51.310;4.462;2023-01-16T11:58:20;6.83;;;4.20;;
12832;SDS011;6483;51.310;4.462;2023-01-16T12:01:14;6.27;;;4.67;;
12832;SDS011;6483;51.310;4.462;2023-01-16T12:04:04;4.20;;;3.20;;
12832;SDS011;6483;51.310;4.462;2023-01-16T12:14:53;3.30;;;1.97;;
12832;SDS011;6483;51.310;4.462;2023-01-16T12:17:31;4.87;;;2.80;;
12832;SDS011;6483;51.310;4.462;2023-01-16T12:25:27;1.70;;;1.10;;
12832;SDS011;6483;51.310;4.462;2023-01-16T12:33:48;2.97;;;0.80;;
12832;SDS011;6483;51.310;4.462;2023-01-16T12:39:21;1.43;;;0.90;;
12832;SDS011;6483;51.310;4.462;2023-01-16T12:42:01;4.90;;;2.77;;
12832;SDS011;6483;51.310;4.462;2023-01-16T12:56:13;2.53;;;1.73;;
12832;SDS011;6483;51.310;4.462;2023-01-16T12:59:07;3.57;;;1.70;;
12832;SDS011;6483;51.310;4.462;2023-01-16T13:01:46;1.77;;;1.47;;
12832;SDS011;6483;51.310;4.462;2023-01-16T13:04:51;1.13;;;1.00;;
12832;SDS011;6483;51.310;4.462;2023-01-16T13:07:12;0.80;;;0.80;;
12832;SDS011;6483;51.310;4.462;2023-01-16T13:09:44;2.10;;;1.07;;
12832;SDS011;6483;51.310;4.462;2023-01-16T13:12:16;2.23;;;1.50;;
12832;SDS011;6483;51.310;4.462;2023-01-16T13:15:11;1.37;;;1.20;;
12832;SDS011;6483;51.310;4.462;2023-01-16T13:20:41;1.77;;;1.30;;
12832;SDS011;6483;51.310;4.462;2023-01-16T13:23:14;1.83;;;1.10;;
12832;SDS011;6483;51.310;4.462;2023-01-16T13:25:44;1.10;;;1.00;;
12832;SDS011;6483;51.310;4.462;2023-01-16T13:28:27;1.97;;;1.13;;
12832;SDS011;6483;51.310;4.462;2023-01-16T13:30:57;1.70;;;1.40;;
12832;SDS011;6483;51.310;4.462;2023-01-16T13:33:28;4.20;;;1.80;;
12832;SDS011;6483;51.310;4.462;2023-01-16T13:38:51;2.50;;;1.90;;
12832;SDS011;6483;51.310;4.462;2023-01-16T13:41:42;1.90;;;1.37;;
12832;SDS011;6483;51.310;4.462;2023-01-16T13:44:14;1.37;;;1.17;;
12832;SDS011;6483;51.310;4.462;2023-01-16T13:47:13;2.03;;;1.50;;
12832;SDS011;6483;51.310;4.462;2023-01-16T13:49:44;1.87;;;1.30;;
12832;SDS011;6483;51.310;4.462;2023-01-16T13:52:21;3.60;;;1.30;;
12832;SDS011;6483;51.310;4.462;2023-01-16T13:54:50;1.90;;;1.30;;
12832;SDS011;6483;51.310;4.462;2023-01-16T13:57:21;3.17;;;1.80;;
12832;SDS011;6483;51.310;4.462;2023-01-16T13:59:57;3.20;;;1.47;;
12832;SDS011;6483;51.310;4.462;2023-01-16T14:11:34;1.70;;;1.60;;
12832;SDS011;6483;51.310;4.462;2023-01-16T14:17:10;2.43;;;1.33;;
12832;SDS011;6483;51.310;4.462;2023-01-16T14:19:37;2.20;;;1.53;;
12832;SDS011;6483;51.310;4.462;2023-01-16T14:22:18;1.57;;;1.20;;
12832;SDS011;6483;51.310;4.462;2023-01-16T14:24:48;3.53;;;1.50;;
12832;SDS011;6483;51.310;4.462;2023-01-16T14:27:19;1.30;;;1.20;;
12832;SDS011;6483;51.310;4.462;2023-01-16T14:29:57;3.20;;;1.30;;
12832;SDS011;6483;51.310;4.462;2023-01-16T14:32:28;2.13;;;1.37;;
12832;SDS011;6483;51.310;4.462;2023-01-16T14:35:02;3.83;;;1.90;;
12832;SDS011;6483;51.310;4.462;2023-01-16T14:37:36;2.47;;;2.27;;
12832;SDS011;6483;51.310;4.462;2023-01-16T14:42:36;1.90;;;1.77;;
12832;SDS011;6483;51.310;4.462;2023-01-16T14:53:56;2.50;;;2.30;;
12832;SDS011;6483;51.310;4.462;2023-01-16T14:56:45;3.90;;;3.03;;
12832;SDS011;6483;51.310;4.462;2023-01-16T14:59:17;2.63;;;2.17;;
12832;SDS011;6483;51.310;4.462;2023-01-16T15:04:51;2.73;;;2.17;;
12832;SDS011;6483;51.310;4.462;2023-01-16T15:16:19;3.83;;;3.13;;
12832;SDS011;6483;51.310;4.462;2023-01-16T15:19:17;3.80;;;2.83;;
12832;SDS011;6483;51.310;4.462;2023-01-16T15:22:04;3.73;;;2.60;;
12832;SDS011;6483;51.310;4.462;2023-01-16T15:24:44;4.53;;;2.77;;
12832;SDS011;6483;51.310;4.462;2023-01-16T15:27:21;3.77;;;3.30;;
12832;SDS011;6483;51.310;4.462;2023-01-16T15:29:58;2.90;;;2.33;;
12832;SDS011;6483;51.310;4.462;2023-01-16T15:32:26;5.27;;;3.00;;
12832;SDS011;6483;51.310;4.462;2023-01-16T15:37:51;2.23;;;2.07;;
12832;SDS011;6483;51.310;4.462;2023-01-16T15:40:29;2.60;;;2.13;;
12832;SDS011;6483;51.310;4.462;2023-01-16T15:42:55;2.93;;;2.30;;
12832;SDS011;6483;51.310;4.462;2023-01-16T15:45:45;6.00;;;3.93;;
12832;SDS011;6483;51.310;4.462;2023-01-16T15:51:20;3.50;;;3.20;;
12832;SDS011;6483;51.310;4.462;2023-01-16T15:53:52;4.30;;;3.90;;
12832;SDS011;6483;51.310;4.462;2023-01-16T15:58:54;4.57;;;3.77;;
12832;SDS011;6483;51.310;4.462;2023-01-16T16:01:28;6.83;;;4.40;;
12832;SDS011;6483;51.310;4.462;2023-01-16T16:03:56;1.80;;;1.70;;
12832;SDS011;6483;51.310;4.462;2023-01-16T16:06:24;2.37;;;1.50;;
12832;SDS011;6483;51.310;4.462;2023-01-16T16:08:53;1.60;;;1.50;;
12832;SDS011;6483;51.310;4.462;2023-01-16T16:11:24;1.63;;;1.53;;
12832;SDS011;6483;51.310;4.462;2023-01-16T16:14:32;1.67;;;1.30;;
12832;SDS011;6483;51.310;4.462;2023-01-16T16:26:01;0.50;;;0.50;;
12832;SDS011;6483;51.310;4.462;2023-01-16T16:28:35;0.70;;;0.70;;
12832;SDS011;6483;51.310;4.462;2023-01-16T16:31:12;0.77;;;0.70;;
12832;SDS011;6483;51.310;4.462;2023-01-16T16:33:58;0.93;;;0.80;;
12832;SDS011;6483;51.310;4.462;2023-01-16T16:36:42;2.27;;;0.83;;
12832;SDS011;6483;51.310;4.462;2023-01-16T16:48:35;5.00;;;1.00;;
12832;SDS011;6483;51.310;4.462;2023-01-16T16:50:50;3.90;;;0.83;;
12832;SDS011;6483;51.310;4.462;2023-01-16T16:53:23;3.40;;;0.77;;
12832;SDS011;6483;51.310;4.462;2023-01-16T16:58:23;5.47;;;1.30;;
12832;SDS011;6483;51.310;4.462;2023-01-16T17:00:50;6.47;;;1.07;;
12832;SDS011;6483;51.310;4.462;2023-01-16T17:03:20;2.90;;;0.80;;
12832;SDS011;6483;51.310;4.462;2023-01-16T17:05:48;2.83;;;1.90;;
12832;SDS011;6483;51.310;4.462;2023-01-16T17:08:24;2.93;;;1.57;;
12832;SDS011;6483;51.310;4.462;2023-01-16T17:10:56;4.93;;;1.20;;
12832;SDS011;6483;51.310;4.462;2023-01-16T17:13:22;5.57;;;2.57;;
12832;SDS011;6483;51.310;4.462;2023-01-16T17:15:56;4.80;;;1.97;;
12832;SDS011;6483;51.310;4.462;2023-01-16T17:18:24;3.73;;;0.80;;
12832;SDS011;6483;51.310;4.462;2023-01-16T17:20:57;2.20;;;1.03;;
12832;SDS011;6483;51.310;4.462;2023-01-16T17:23:23;3.83;;;1.10;;
12832;SDS011;6483;51.310;4.462;2023-01-16T17:25:50;5.20;;;1.57;;
12832;SDS011;6483;51.310;4.462;2023-01-16T17:28:19;3.70;;;1.20;;
12832;SDS011;6483;51.310;4.462;2023-01-16T17:30:45;4.37;;;1.57;;
12832;SDS011;6483;51.310;4.462;2023-01-16T17:33:15;3.53;;;1.40;;
12832;SDS011;6483;51.310;4.462;2023-01-16T17:35:43;2.00;;;1.33;;
12832;SDS011;6483;51.310;4.462;2023-01-16T17:38:13;8.33;;;1.63;;
12832;SDS011;6483;51.310;4.462;2023-01-16T17:40:40;5.87;;;1.37;;
12832;SDS011;6483;51.310;4.462;2023-01-16T17:43:10;4.97;;;1.60;;
12832;SDS011;6483;51.310;4.462;2023-01-16T17:46:19;1.73;;;1.13;;
12832;SDS011;6483;51.310;4.462;2023-01-16T17:48:48;3.13;;;0.97;;
12832;SDS011;6483;51.310;4.462;2023-01-16T17:51:15;10.13;;;2.07;;
12832;SDS011;6483;51.310;4.462;2023-01-16T17:53:45;1.53;;;0.90;;
12832;SDS011;6483;51.310;4.462;2023-01-16T17:56:10;3.00;;;0.80;;
12832;SDS011;6483;51.310;4.462;2023-01-16T17:58:37;1.73;;;0.90;;
12832;SDS011;6483;51.310;4.462;2023-01-16T18:01:13;3.03;;;1.13;;
12832;SDS011;6483;51.310;4.462;2023-01-16T18:03:42;2.33;;;1.20;;
12832;SDS011;6483;51.310;4.462;2023-01-16T18:06:39;3.33;;;1.70;;
12832;SDS011;6483;51.310;4.462;2023-01-16T18:09:09;4.33;;;1.87;;
12832;SDS011;6483;51.310;4.462;2023-01-16T18:11:37;7.00;;;1.77;;
12832;SDS011;6483;51.310;4.462;2023-01-16T18:14:23;2.50;;;1.10;;
12832;SDS011;6483;51.310;4.462;2023-01-16T18:17:16;3.07;;;1.10;;
12832;SDS011;6483;51.310;4.462;2023-01-16T18:20:08;4.83;;;1.50;;
12832;SDS011;6483;51.310;4.462;2023-01-16T18:22:36;3.97;;;2.87;;
12832;SDS011;6483;51.310;4.462;2023-01-16T18:25:09;3.57;;;2.20;;
12832;SDS011;6483;51.310;4.462;2023-01-16T18:27:36;4.30;;;3.03;;
12832;SDS011;6483;51.310;4.462;2023-01-16T18:30:02;2.80;;;2.07;;
12832;SDS011;6483;51.310;4.462;2023-01-16T18:32:33;3.47;;;1.73;;
12832;SDS011;6483;51.310;4.462;2023-01-16T18:34:59;2.10;;;1.20;;
12832;SDS011;6483;51.310;4.462;2023-01-16T18:40:12;5.20;;;1.67;;